GLZZI EGHR-EGTK
Flight info
| Callsign | GLZZI |
|---|---|
| Flight time | 0h 37m |
| Altitude | 2500 |
| Route | VFR |
| Aircraft | EC45/L-SDFGRY/C |
Departure
| Time | 2026-04-21 10:36 |
|---|---|
| Airport | Goodwood Aerodrome (EGHR) |
Arrival
| Time | 2026-04-21 11:13 |
|---|---|
| Airport | London Oxford Airport (EGTK) |
| Time | Latitude | Longitude | Altitude | Speed | Heading |
|---|---|---|---|---|---|
| 2026-04-21 10:25 | 50.85955 | -0.75700 | 107 ft | 0 kts | 272° |
| 2026-04-21 10:33 | 50.85952 | -0.75717 | 108 ft | 3 kts | 180° |
| 2026-04-21 10:34 | 50.85914 | -0.75728 | 109 ft | 7 kts | 153° |
| 2026-04-21 10:34 | 50.85859 | -0.75679 | 109 ft | 9 kts | 151° |
| 2026-04-21 10:34 | 50.85810 | -0.75637 | 109 ft | 10 kts | 151° |
| 2026-04-21 10:34 | 50.85755 | -0.75577 | 112 ft | 9 kts | 151° |
| 2026-04-21 10:35 | 50.85702 | -0.75518 | 114 ft | 10 kts | 150° |
| 2026-04-21 10:35 | 50.85635 | -0.75449 | 117 ft | 8 kts | 244° |
| 2026-04-21 10:35 | 50.85625 | -0.75498 | 145 ft | 21 kts | 321° |
| 2026-04-21 10:35 | 50.85885 | -0.75825 | 408 ft | 60 kts | 338° |
| 2026-04-21 10:36 | 50.86219 | -0.76283 | 808 ft | 67 kts | 338° |
| 2026-04-21 10:36 | 50.86515 | -0.76962 | 1142 ft | 79 kts | 317° |
| 2026-04-21 10:36 | 50.86897 | -0.77694 | 1359 ft | 94 kts | 325° |
| 2026-04-21 10:36 | 50.87395 | -0.78502 | 1483 ft | 109 kts | 324° |
| 2026-04-21 10:37 | 50.87924 | -0.79401 | 1660 ft | 114 kts | 322° |
| 2026-04-21 10:37 | 50.88459 | -0.80353 | 1808 ft | 117 kts | 320° |
| 2026-04-21 10:37 | 50.89001 | -0.81344 | 1961 ft | 120 kts | 319° |
| 2026-04-21 10:37 | 50.89551 | -0.82357 | 2110 ft | 121 kts | 319° |
| 2026-04-21 10:38 | 50.89916 | -0.83032 | 2213 ft | 122 kts | 320° |
| 2026-04-21 10:38 | 50.90470 | -0.84055 | 2319 ft | 121 kts | 320° |
| 2026-04-21 10:38 | 50.91019 | -0.85066 | 2475 ft | 121 kts | 321° |
| 2026-04-21 10:38 | 50.91744 | -0.86417 | 2515 ft | 123 kts | 318° |
| 2026-04-21 10:39 | 50.92117 | -0.87118 | 2516 ft | 123 kts | 320° |
| 2026-04-21 10:39 | 50.92847 | -0.88485 | 2527 ft | 122 kts | 319° |
| 2026-04-21 10:39 | 50.93218 | -0.89177 | 2521 ft | 122 kts | 321° |
| 2026-04-21 10:39 | 50.93776 | -0.90202 | 2525 ft | 123 kts | 321° |
| 2026-04-21 10:40 | 50.94332 | -0.91224 | 2528 ft | 122 kts | 320° |
| 2026-04-21 10:40 | 50.94886 | -0.92242 | 2525 ft | 122 kts | 321° |
| 2026-04-21 10:40 | 50.95448 | -0.93263 | 2532 ft | 123 kts | 320° |
| 2026-04-21 10:40 | 50.96003 | -0.94279 | 2539 ft | 122 kts | 321° |
| 2026-04-21 10:41 | 50.96556 | -0.95284 | 2539 ft | 122 kts | 319° |
| 2026-04-21 10:41 | 50.97117 | -0.96314 | 2537 ft | 122 kts | 320° |
| 2026-04-21 10:41 | 50.97670 | -0.97334 | 2540 ft | 122 kts | 321° |
| 2026-04-21 10:41 | 50.98223 | -0.98363 | 2538 ft | 123 kts | 321° |
| 2026-04-21 10:42 | 50.98777 | -0.99392 | 2537 ft | 122 kts | 320° |
| 2026-04-21 10:42 | 50.99331 | -1.00415 | 2538 ft | 122 kts | 320° |
| 2026-04-21 10:42 | 50.99881 | -1.01420 | 2531 ft | 123 kts | 322° |
| 2026-04-21 10:42 | 51.00445 | -1.02437 | 2539 ft | 122 kts | 321° |
| 2026-04-21 10:43 | 51.01002 | -1.03463 | 2539 ft | 122 kts | 320° |
| 2026-04-21 10:43 | 51.01557 | -1.04490 | 2540 ft | 123 kts | 320° |
| 2026-04-21 10:43 | 51.02109 | -1.05515 | 2538 ft | 122 kts | 320° |
| 2026-04-21 10:43 | 51.02663 | -1.06538 | 2542 ft | 123 kts | 321° |
| 2026-04-21 10:44 | 51.03273 | -1.07425 | 2536 ft | 114 kts | 342° |
| 2026-04-21 10:44 | 51.04003 | -1.07815 | 2543 ft | 109 kts | 356° |
| 2026-04-21 10:44 | 51.04748 | -1.08053 | 2540 ft | 109 kts | 0° |
| 2026-04-21 10:44 | 51.05493 | -1.08255 | 2537 ft | 109 kts | 0° |
| 2026-04-21 10:45 | 51.06239 | -1.08460 | 2541 ft | 108 kts | 1° |
| 2026-04-21 10:45 | 51.06979 | -1.08674 | 2543 ft | 108 kts | 359° |
| 2026-04-21 10:45 | 51.07720 | -1.08899 | 2542 ft | 109 kts | 359° |
| 2026-04-21 10:45 | 51.08462 | -1.09127 | 2543 ft | 109 kts | 358° |
| 2026-04-21 10:46 | 51.09196 | -1.09359 | 2548 ft | 107 kts | 360° |
| 2026-04-21 10:46 | 51.09924 | -1.09588 | 2543 ft | 106 kts | 360° |
| 2026-04-21 10:46 | 51.10649 | -1.09810 | 2542 ft | 106 kts | 359° |
| 2026-04-21 10:46 | 51.11373 | -1.10034 | 2543 ft | 106 kts | 359° |
| 2026-04-21 10:47 | 51.12099 | -1.10260 | 2540 ft | 106 kts | 0° |
| 2026-04-21 10:47 | 51.12827 | -1.10482 | 2543 ft | 106 kts | 360° |
| 2026-04-21 10:47 | 51.13543 | -1.10704 | 2543 ft | 107 kts | 359° |
| 2026-04-21 10:47 | 51.14296 | -1.10934 | 2543 ft | 110 kts | 358° |
| 2026-04-21 10:48 | 51.15043 | -1.11170 | 2554 ft | 109 kts | 358° |
| 2026-04-21 10:48 | 51.15781 | -1.11414 | 2552 ft | 109 kts | 356° |
| 2026-04-21 10:48 | 51.16524 | -1.11656 | 2545 ft | 109 kts | 358° |
| 2026-04-21 10:48 | 51.17267 | -1.11890 | 2546 ft | 109 kts | 359° |
| 2026-04-21 10:49 | 51.18006 | -1.12117 | 2548 ft | 107 kts | 360° |
| 2026-04-21 10:49 | 51.18726 | -1.12341 | 2544 ft | 106 kts | 0° |
| 2026-04-21 10:49 | 51.19458 | -1.12563 | 2548 ft | 107 kts | 359° |
| 2026-04-21 10:49 | 51.20186 | -1.12789 | 2548 ft | 106 kts | 0° |
| 2026-04-21 10:50 | 51.20913 | -1.13019 | 2547 ft | 107 kts | 359° |
| 2026-04-21 10:50 | 51.21642 | -1.13249 | 2543 ft | 107 kts | 359° |
| 2026-04-21 10:50 | 51.22384 | -1.13476 | 2544 ft | 109 kts | 359° |
| 2026-04-21 10:50 | 51.23128 | -1.13706 | 2551 ft | 108 kts | 359° |
| 2026-04-21 10:51 | 51.23855 | -1.13942 | 2541 ft | 107 kts | 358° |
| 2026-04-21 10:51 | 51.24578 | -1.14166 | 2544 ft | 107 kts | 359° |
| 2026-04-21 10:51 | 51.25308 | -1.14396 | 2546 ft | 107 kts | 360° |
| 2026-04-21 10:51 | 51.26036 | -1.14629 | 2550 ft | 107 kts | 359° |
| 2026-04-21 10:52 | 51.26757 | -1.14865 | 2547 ft | 105 kts | 359° |
| 2026-04-21 10:52 | 51.27475 | -1.15097 | 2550 ft | 106 kts | 358° |
| 2026-04-21 10:52 | 51.28209 | -1.15330 | 2548 ft | 108 kts | 359° |
| 2026-04-21 10:52 | 51.28952 | -1.15570 | 2548 ft | 110 kts | 358° |
| 2026-04-21 10:53 | 51.29703 | -1.15805 | 2542 ft | 110 kts | 358° |
| 2026-04-21 10:53 | 51.30447 | -1.16034 | 2540 ft | 108 kts | 359° |
| 2026-04-21 10:53 | 51.31192 | -1.16254 | 2543 ft | 109 kts | 360° |
| 2026-04-21 10:53 | 51.31934 | -1.16475 | 2546 ft | 107 kts | 359° |
| 2026-04-21 10:54 | 51.32662 | -1.16696 | 2542 ft | 106 kts | 360° |
| 2026-04-21 10:54 | 51.33397 | -1.16918 | 2541 ft | 107 kts | 359° |
| 2026-04-21 10:54 | 51.34125 | -1.17155 | 2545 ft | 107 kts | 358° |
| 2026-04-21 10:54 | 51.34859 | -1.17393 | 2552 ft | 109 kts | 357° |
| 2026-04-21 10:55 | 51.35597 | -1.17637 | 2550 ft | 108 kts | 358° |
| 2026-04-21 10:55 | 51.36341 | -1.17879 | 2553 ft | 109 kts | 358° |
| 2026-04-21 10:55 | 51.37083 | -1.18119 | 2554 ft | 108 kts | 359° |
| 2026-04-21 10:55 | 51.37823 | -1.18355 | 2544 ft | 109 kts | 358° |
| 2026-04-21 10:56 | 51.38572 | -1.18590 | 2539 ft | 110 kts | 358° |
| 2026-04-21 10:56 | 51.39322 | -1.18827 | 2538 ft | 111 kts | 359° |
| 2026-04-21 10:56 | 51.40080 | -1.19065 | 2531 ft | 111 kts | 359° |
| 2026-04-21 10:56 | 51.40832 | -1.19300 | 2535 ft | 109 kts | 357° |
| 2026-04-21 10:57 | 51.41573 | -1.19535 | 2540 ft | 108 kts | 359° |
| 2026-04-21 10:57 | 51.42308 | -1.19766 | 2537 ft | 108 kts | 359° |
| 2026-04-21 10:57 | 51.43043 | -1.19998 | 2539 ft | 108 kts | 358° |
| 2026-04-21 10:57 | 51.43784 | -1.20231 | 2538 ft | 108 kts | 358° |
| 2026-04-21 10:58 | 51.44528 | -1.20461 | 2541 ft | 110 kts | 358° |
| 2026-04-21 10:58 | 51.45294 | -1.20691 | 2549 ft | 112 kts | 358° |
| 2026-04-21 10:58 | 51.46053 | -1.20934 | 2541 ft | 111 kts | 358° |
| 2026-04-21 10:58 | 51.46811 | -1.21176 | 2543 ft | 111 kts | 359° |
| 2026-04-21 10:59 | 51.47565 | -1.21421 | 2544 ft | 110 kts | 358° |
| 2026-04-21 10:59 | 51.48321 | -1.21662 | 2544 ft | 111 kts | 357° |
| 2026-04-21 10:59 | 51.49069 | -1.21906 | 2544 ft | 108 kts | 358° |
| 2026-04-21 10:59 | 51.49818 | -1.22134 | 2543 ft | 111 kts | 359° |
| 2026-04-21 11:00 | 51.50575 | -1.22350 | 2545 ft | 109 kts | 360° |
| 2026-04-21 11:00 | 51.51279 | -1.22568 | 2549 ft | 96 kts | 358° |
| 2026-04-21 11:00 | 51.51936 | -1.22765 | 2543 ft | 96 kts | 0° |
| 2026-04-21 11:00 | 51.52594 | -1.22946 | 2549 ft | 96 kts | 1° |
| 2026-04-21 11:01 | 51.53256 | -1.23132 | 2549 ft | 97 kts | 1° |
| 2026-04-21 11:01 | 51.53922 | -1.23320 | 2554 ft | 96 kts | 360° |
| 2026-04-21 11:01 | 51.54587 | -1.23508 | 2550 ft | 98 kts | 360° |
| 2026-04-21 11:02 | 51.55930 | -1.23900 | 2549 ft | 98 kts | 0° |
| 2026-04-21 11:02 | 51.56607 | -1.24097 | 2549 ft | 98 kts | 1° |
| 2026-04-21 11:02 | 51.57283 | -1.24293 | 2547 ft | 98 kts | 1° |
| 2026-04-21 11:02 | 51.57945 | -1.24491 | 2542 ft | 97 kts | 0° |
| 2026-04-21 11:03 | 51.58608 | -1.24678 | 2550 ft | 97 kts | 0° |
| 2026-04-21 11:03 | 51.59277 | -1.24863 | 2548 ft | 99 kts | 360° |
| 2026-04-21 11:03 | 51.59955 | -1.25055 | 2549 ft | 98 kts | 1° |
| 2026-04-21 11:03 | 51.60618 | -1.25249 | 2549 ft | 96 kts | 0° |
| 2026-04-21 11:04 | 51.61287 | -1.25440 | 2548 ft | 98 kts | 2° |
| 2026-04-21 11:04 | 51.61959 | -1.25634 | 2550 ft | 99 kts | 2° |
| 2026-04-21 11:04 | 51.62637 | -1.25835 | 2550 ft | 99 kts | 0° |
| 2026-04-21 11:04 | 51.63314 | -1.26036 | 2554 ft | 97 kts | 1° |
| 2026-04-21 11:05 | 51.63979 | -1.26235 | 2550 ft | 97 kts | 360° |
| 2026-04-21 11:05 | 51.64648 | -1.26427 | 2550 ft | 98 kts | 359° |
| 2026-04-21 11:05 | 51.65317 | -1.26623 | 2550 ft | 97 kts | 0° |
| 2026-04-21 11:05 | 51.65984 | -1.26813 | 2547 ft | 97 kts | 1° |
| 2026-04-21 11:06 | 51.66643 | -1.27007 | 2551 ft | 95 kts | 2° |
| 2026-04-21 11:06 | 51.67302 | -1.27201 | 2546 ft | 98 kts | 2° |
| 2026-04-21 11:06 | 51.67985 | -1.27395 | 2541 ft | 100 kts | 1° |
| 2026-04-21 11:06 | 51.68663 | -1.27603 | 2411 ft | 99 kts | 359° |
| 2026-04-21 11:07 | 51.68954 | -1.27694 | 2356 ft | 98 kts | 359° |
| 2026-04-21 11:07 | 51.69508 | -1.27871 | 2253 ft | 97 kts | 359° |
| 2026-04-21 11:07 | 51.70171 | -1.28082 | 2121 ft | 97 kts | 360° |
| 2026-04-21 11:07 | 51.70839 | -1.28284 | 1995 ft | 96 kts | 0° |
| 2026-04-21 11:08 | 51.71482 | -1.28480 | 1848 ft | 94 kts | 2° |
| 2026-04-21 11:08 | 51.72129 | -1.28665 | 1687 ft | 95 kts | 0° |
| 2026-04-21 11:08 | 51.72784 | -1.28849 | 1608 ft | 96 kts | 1° |
| 2026-04-21 11:08 | 51.73431 | -1.29032 | 1572 ft | 93 kts | 1° |
| 2026-04-21 11:09 | 51.74073 | -1.29209 | 1555 ft | 93 kts | 0° |
| 2026-04-21 11:09 | 51.74703 | -1.29226 | 1542 ft | 90 kts | 12° |
| 2026-04-21 11:09 | 51.75328 | -1.29193 | 1535 ft | 89 kts | 13° |
| 2026-04-21 11:09 | 51.75943 | -1.29156 | 1533 ft | 90 kts | 12° |
| 2026-04-21 11:10 | 51.76573 | -1.29106 | 1531 ft | 92 kts | 13° |
| 2026-04-21 11:10 | 51.77205 | -1.29012 | 1533 ft | 89 kts | 15° |
| 2026-04-21 11:10 | 51.77828 | -1.28847 | 1533 ft | 91 kts | 20° |
| 2026-04-21 11:10 | 51.78392 | -1.28648 | 1535 ft | 79 kts | 24° |
| 2026-04-21 11:11 | 51.78947 | -1.28897 | 1532 ft | 95 kts | 329° |
| 2026-04-21 11:11 | 51.79288 | -1.29857 | 1538 ft | 97 kts | 299° |
| 2026-04-21 11:11 | 51.79499 | -1.30800 | 1573 ft | 82 kts | 307° |
| 2026-04-21 11:11 | 51.79772 | -1.31557 | 1473 ft | 73 kts | 329° |
| 2026-04-21 11:12 | 51.80140 | -1.32039 | 1369 ft | 66 kts | 343° |
| 2026-04-21 11:12 | 51.80521 | -1.32410 | 1182 ft | 64 kts | 354° |
| 2026-04-21 11:12 | 51.80922 | -1.32626 | 1055 ft | 61 kts | 2° |
| 2026-04-21 11:12 | 51.81320 | -1.32698 | 973 ft | 55 kts | 14° |
| 2026-04-21 11:13 | 51.81681 | -1.32623 | 857 ft | 49 kts | 20° |
| 2026-04-21 11:13 | 51.81964 | -1.32566 | 777 ft | 32 kts | 21° |
| 2026-04-21 11:13 | 51.82172 | -1.32502 | 723 ft | 32 kts | 29° |
| 2026-04-21 11:13 | 51.82436 | -1.32384 | 629 ft | 50 kts | 26° |
| 2026-04-21 11:14 | 51.82820 | -1.32277 | 432 ft | 58 kts | 23° |
| 2026-04-21 11:14 | 51.83166 | -1.32171 | 299 ft | 35 kts | 28° |
| 2026-04-21 11:14 | 51.83340 | -1.32115 | 286 ft | 18 kts | 31° |
| 2026-04-21 11:14 | 51.83422 | -1.32098 | 297 ft | 15 kts | 36° |
| 2026-04-21 11:15 | 51.83451 | -1.32086 | 300 ft | 13 kts | 38° |
| 2026-04-21 11:15 | 51.83514 | -1.32026 | 300 ft | 7 kts | 88° |
| 2026-04-21 11:15 | 51.83488 | -1.31967 | 298 ft | 6 kts | 113° |
| 2026-04-21 11:15 | 51.83478 | -1.31957 | 291 ft | 6 kts | 113° |
| 2026-04-21 11:16 | 51.83461 | -1.31943 | 285 ft | 0 kts | 112° |
| 2026-04-21 11:16 | 51.83462 | -1.31945 | 286 ft | 0 kts | 112° |
| 2026-04-21 11:16 | 51.83463 | -1.31945 | 288 ft | 0 kts | 112° |
| 2026-04-21 11:17 | 51.83453 | -1.31925 | 290 ft | 7 kts | 159° |
| 2026-04-21 11:17 | 51.83379 | -1.31889 | 292 ft | 15 kts | 161° |
| 2026-04-21 11:17 | 51.83281 | -1.31849 | 291 ft | 14 kts | 161° |
| 2026-04-21 11:17 | 51.83186 | -1.31795 | 291 ft | 14 kts | 161° |
| 2026-04-21 11:18 | 51.83116 | -1.31761 | 291 ft | 6 kts | 97° |
| 2026-04-21 11:18 | 51.83108 | -1.31698 | 291 ft | 7 kts | 81° |
| 2026-04-21 11:18 | 51.83110 | -1.31639 | 281 ft | 3 kts | 67° |
| 2026-04-21 11:18 | 51.83114 | -1.31620 | 275 ft | 1 kts | 66° |
| 2026-04-21 11:19 | 51.83116 | -1.31615 | 263 ft | 0 kts | 66° |